Time;durP1;ratioP1;P1;durP2;ratioP2;P2;SDS_P1;SDS_P2;PMS_P1;PMS_P2;Temp;Humidity;BMP_temperature;BMP_pressure;BME280_temperature;BME280_humidity;BME280_pressure;Samples;Min_cycle;Max_cycle;Signal;HPM_P1;HPM_P2
2021/10/07 00:00:47;;;;;;;8.77;4.50;;;;;;;2.73;100.00;101830.70;1713383;83;21075;-75
2021/10/07 00:03:15;;;;;;;10.60;4.90;;;;;;;2.71;100.00;101838.38;1705561;84;21019;-74
2021/10/07 00:05:42;;;;;;;11.53;5.33;;;;;;;2.68;100.00;101840.75;1705622;84;21038;-75
2021/10/07 00:08:09;;;;;;;18.30;6.43;;;;;;;2.64;100.00;101838.70;1705263;84;21098;-75
2021/10/07 00:10:36;;;;;;;15.13;6.13;;;;;;;2.60;100.00;101831.78;1688644;85;21014;-75
2021/10/07 00:13:03;;;;;;;12.40;5.23;;;;;;;2.58;100.00;101833.64;1688257;85;21058;-75
2021/10/07 00:15:30;;;;;;;10.73;4.60;;;;;;;2.56;100.00;101831.52;1688554;85;21098;-75
2021/10/07 00:17:58;;;;;;;8.87;4.23;;;;;;;2.55;100.00;101836.48;1688596;85;21039;-75
2021/10/07 00:20:24;;;;;;;12.30;5.23;;;;;;;2.52;100.00;101831.29;1688610;85;21063;-74
2021/10/07 00:22:51;;;;;;;20.83;6.50;;;;;;;2.50;100.00;101825.16;1688602;85;21062;-74
2021/10/07 00:25:18;;;;;;;23.53;7.50;;;;;;;2.49;100.00;101836.77;1688644;85;21091;-75
2021/10/07 00:27:45;;;;;;;15.63;5.80;;;;;;;2.48;100.00;101847.08;1688501;85;21023;-73
2021/10/07 00:30:19;;;;;;;14.87;5.20;;;;;;;2.47;100.00;101832.84;1688517;85;21090;-74
2021/10/07 00:40:47;;;;;;;10.40;4.50;;;;;;;2.40;100.00;101832.74;1630275;86;21527;-76
2021/10/07 00:43:14;;;;;;;10.30;4.33;;;;;;;2.38;100.00;101833.77;1608880;88;21098;-76
2021/10/07 00:45:49;;;;;;;13.73;5.00;;;;;;;2.36;100.00;101837.84;1637458;86;21091;-75
2021/10/07 00:48:17;;;;;;;10.97;4.40;;;;;;;2.36;100.00;101843.66;1649310;87;21102;-74
2021/10/07 00:50:45;;;;;;;12.50;4.00;;;;;;;2.33;100.00;101841.13;1651321;87;21050;-74
2021/10/07 00:53:13;;;;;;;6.93;4.13;;;;;;;2.31;100.00;101833.67;1651299;87;21077;-75
2021/10/07 00:55:40;;;;;;;14.80;4.80;;;;;;;2.28;100.00;101831.55;1651217;87;21047;-75
2021/10/07 00:58:07;;;;;;;20.83;7.73;;;;;;;2.28;100.00;101837.34;1651321;87;21079;-75
2021/10/07 01:00:34;;;;;;;17.70;6.13;;;;;;;2.26;100.00;101833.41;1650916;86;21595;-76
2021/10/07 01:03:02;;;;;;;14.77;5.73;;;;;;;2.26;100.00;101841.89;1649521;87;21065;-76
2021/10/07 01:05:30;;;;;;;17.23;5.80;;;;;;;2.25;100.00;101826.83;1649675;87;21081;-76
2021/10/07 01:07:57;;;;;;;14.23;5.83;;;;;;;2.24;100.00;101828.61;1649855;86;21045;-76
2021/10/07 01:10:24;;;;;;;12.90;4.83;;;;;;;2.23;100.00;101827.34;1649782;87;21574;-76
2021/10/07 01:12:51;;;;;;;12.97;5.30;;;;;;;2.23;100.00;101821.56;1684755;84;21015;-77
2021/10/07 01:15:19;;;;;;;12.83;4.47;;;;;;;2.22;100.00;101818.48;1712155;84;21311;-76
2021/10/07 01:17:46;;;;;;;12.87;4.37;;;;;;;2.22;100.00;101816.30;1712233;84;21034;-74
2021/10/07 01:20:13;;;;;;;12.50;4.53;;;;;;;2.22;100.00;101817.63;1712119;84;21545;-77
2021/10/07 01:22:40;;;;;;;14.27;4.87;;;;;;;2.21;100.00;101820.77;1712237;84;21431;-76
2021/10/07 01:25:08;;;;;;;14.97;5.17;;;;;;;2.19;100.00;101817.28;1712330;84;21094;-76
2021/10/07 01:27:37;;;;;;;17.33;4.80;;;;;;;2.19;100.00;101817.28;1712264;84;21525;-75
2021/10/07 01:30:11;;;;;;;10.57;4.60;;;;;;;2.18;100.00;101822.69;1712403;84;21082;-76
2021/10/07 01:32:39;;;;;;;13.63;4.87;;;;;;;2.16;100.00;101817.45;1633071;87;21584;-76
2021/10/07 01:35:09;;;;;;;15.37;5.23;;;;;;;2.15;100.00;101822.86;1633179;88;21050;-74
2021/10/07 01:37:36;;;;;;;13.43;4.70;;;;;;;2.13;100.00;101818.08;1633165;88;21034;-75
2021/10/07 01:40:08;;;;;;;10.77;4.57;;;;;;;2.10;100.00;101820.41;1593191;88;21631;-76
2021/10/07 01:42:38;;;;;;;9.83;4.20;;;;;;;2.09;100.00;101814.21;1592607;90;21085;-75
2021/10/07 01:45:08;;;;;;;8.47;3.63;;;;;;;2.08;100.00;101815.13;1582444;89;21094;-75
2021/10/07 01:47:35;;;;;;;13.03;4.63;;;;;;;2.07;100.00;101823.20;1610929;89;21100;-75
2021/10/07 01:50:04;;;;;;;13.73;4.50;;;;;;;2.06;100.00;101817.49;1610732;88;21080;-75
2021/10/07 01:52:32;;;;;;;12.80;5.40;;;;;;;2.05;100.00;101821.08;1584183;91;21079;-75
2021/10/07 01:54:59;;;;;;;9.87;4.40;;;;;;;2.04;100.00;101814.89;1604390;88;21119;-76
2021/10/07 01:57:26;;;;;;;13.60;5.90;;;;;;;2.04;100.00;101824.23;1600007;90;21586;-75
2021/10/07 01:59:53;;;;;;;14.33;4.40;;;;;;;2.04;100.00;101818.04;1610774;89;21641;-75
2021/10/07 02:02:20;;;;;;;10.53;4.30;;;;;;;2.03;100.00;101824.30;1633630;87;21580;-74
2021/10/07 02:04:48;;;;;;;10.67;4.10;;;;;;;2.03;100.00;101820.30;1645713;87;21014;-75
2021/10/07 02:07:15;;;;;;;9.50;4.20;;;;;;;2.01;100.00;101830.19;1645304;87;21104;-75
2021/10/07 02:09:42;;;;;;;9.53;4.30;;;;;;;1.98;100.00;101821.83;1645635;87;21021;-75
2021/10/07 02:12:09;;;;;;;11.50;4.27;;;;;;;1.96;100.00;101822.38;1645870;87;21554;-76
2021/10/07 02:14:36;;;;;;;13.17;4.30;;;;;;;1.93;100.00;101818.99;1645214;87;21048;-76
2021/10/07 02:17:04;;;;;;;19.87;7.47;;;;;;;1.92;100.00;101829.28;1645322;87;21101;-75
2021/10/07 02:19:31;;;;;;;18.63;6.50;;;;;;;1.91;100.00;101833.73;1645400;87;21090;-76
2021/10/07 02:21:58;;;;;;;12.27;5.23;;;;;;;1.90;100.00;101834.21;1645440;87;21212;-75
2021/10/07 02:24:25;;;;;;;14.10;4.30;;;;;;;1.88;100.00;101828.56;1645744;87;21021;-75
2021/10/07 02:26:52;;;;;;;9.37;4.03;;;;;;;1.86;100.00;101832.63;1645621;87;21054;-75
2021/10/07 02:29:20;;;;;;;7.70;3.90;;;;;;;1.84;100.00;101833.17;1665735;85;21128;-76
2021/10/07 02:31:47;;;;;;;13.07;3.70;;;;;;;1.83;100.00;101844.77;1684159;85;21447;-75
2021/10/07 02:34:14;;;;;;;10.10;3.80;;;;;;;1.80;100.00;101842.23;1654910;87;21035;-76
2021/10/07 02:36:41;;;;;;;14.10;4.20;;;;;;;1.79;100.00;101840.97;1684185;84;21083;-74
2021/10/07 02:39:08;;;;;;;11.10;4.80;;;;;;;1.76;100.00;101842.47;1681740;85;21073;-76
2021/10/07 02:41:35;;;;;;;17.23;5.67;;;;;;;1.74;100.00;101846.53;1740282;82;21077;-75
2021/10/07 02:44:03;;;;;;;20.80;6.37;;;;;;;1.71;100.00;101842.19;1740252;82;21530;-76
2021/10/07 02:46:31;;;;;;;26.13;8.60;;;;;;;1.69;100.00;101851.20;1765102;81;20998;-75
2021/10/07 02:48:58;;;;;;;56.03;19.50;;;;;;;1.66;100.00;101847.34;1776336;81;21526;-75
2021/10/07 02:51:25;;;;;;;68.90;23.53;;;;;;;1.66;100.00;101851.34;1776449;81;21013;-75
2021/10/07 02:53:52;;;;;;;54.03;18.53;;;;;;;1.64;100.00;101847.40;1776453;81;21033;-75
2021/10/07 02:56:19;;;;;;;51.63;18.43;;;;;;;1.64;100.00;101852.73;1776214;81;21064;-75
2021/10/07 02:58:47;;;;;;;58.43;19.60;;;;;;;1.63;100.00;101855.02;1776694;81;21008;-76
2021/10/07 03:01:16;;;;;;;37.47;12.27;;;;;;;1.63;100.00;101851.47;1776111;81;21538;-76
2021/10/07 03:03:43;;;;;;;31.43;11.23;;;;;;;1.62;100.00;101847.09;1773375;81;21079;-75
2021/10/07 03:06:10;;;;;;;22.37;7.07;;;;;;;1.61;100.00;101851.56;1773503;81;21041;-76
2021/10/07 03:08:37;;;;;;;33.00;11.20;;;;;;;1.61;100.00;101851.56;1773876;81;21029;-74
2021/10/07 03:11:04;;;;;;;24.30;7.90;;;;;;;1.62;100.00;101859.08;1773550;81;21025;-75
2021/10/07 03:13:31;;;;;;;14.23;6.00;;;;;;;1.63;100.00;101846.13;1773395;81;21479;-76
2021/10/07 03:15:58;;;;;;;23.03;8.53;;;;;;;1.64;100.00;101847.88;1773409;81;21001;-74
2021/10/07 03:18:25;;;;;;;15.33;5.87;;;;;;;1.64;100.00;101850.06;1773259;81;21045;-75
2021/10/07 03:20:53;;;;;;;16.23;5.20;;;;;;;1.65;100.00;101856.29;1773306;81;21499;-75
2021/10/07 03:23:20;;;;;;;24.67;8.93;;;;;;;1.64;100.00;101851.40;1773349;81;21041;-75
2021/10/07 03:25:47;;;;;;;19.37;6.37;;;;;;;1.64;100.00;101857.21;1773450;81;21056;-75
2021/10/07 03:28:14;;;;;;;13.13;5.70;;;;;;;1.64;100.00;101866.55;1773522;81;21491;-75
2021/10/07 03:30:41;;;;;;;13.30;5.37;;;;;;;1.63;100.00;101865.69;1773326;81;21064;-76
2021/10/07 03:33:09;;;;;;;15.17;6.00;;;;;;;1.64;100.00;101865.20;1773552;81;20998;-75
2021/10/07 03:35:36;;;;;;;13.27;4.93;;;;;;;1.63;100.00;101867.02;1773550;81;21061;-76
2021/10/07 03:38:04;;;;;;;12.70;5.13;;;;;;;1.63;100.00;101876.36;1773289;81;21115;-76
2021/10/07 03:40:31;;;;;;;15.87;5.30;;;;;;;1.64;100.00;101878.55;1734183;81;21511;-75
2021/10/07 03:42:58;;;;;;;9.63;4.20;;;;;;;1.61;100.00;101883.56;1703958;84;21040;-76
2021/10/07 03:45:25;;;;;;;18.40;7.43;;;;;;;1.59;100.00;101880.06;1706824;82;20979;-75
2021/10/07 03:47:52;;;;;;;9.60;4.50;;;;;;;1.56;100.00;101878.89;1715918;84;20991;-77
2021/10/07 03:50:19;;;;;;;12.37;4.20;;;;;;;1.56;100.00;101882.89;1716097;84;21014;-76
2021/10/07 03:52:46;;;;;;;12.77;4.87;;;;;;;1.54;100.00;101879.88;1715871;84;21062;-76
2021/10/07 03:55:13;;;;;;;13.67;4.67;;;;;;;1.52;100.00;101882.61;1715856;84;21090;-76
2021/10/07 03:57:40;;;;;;;13.50;4.83;;;;;;;1.52;100.00;101887.94;1715708;84;21022;-76
2021/10/07 04:00:11;;;;;;;10.43;4.13;;;;;;;1.52;100.00;101891.94;1715928;83;21062;-75
2021/10/07 04:02:42;;;;;;;8.50;3.80;;;;;;;1.51;100.00;101893.75;1723647;83;21093;-76
2021/10/07 04:05:09;;;;;;;7.93;4.17;;;;;;;1.51;100.00;101896.89;1716395;84;21046;-76
2021/10/07 04:07:38;;;;;;;16.07;5.40;;;;;;;1.49;100.00;101898.29;1716133;84;21086;-76
2021/10/07 04:10:07;;;;;;;14.17;5.03;;;;;;;1.49;100.00;101908.95;1716406;84;21078;-75
2021/10/07 04:12:34;;;;;;;19.07;5.50;;;;;;;1.50;100.00;101905.33;1716481;83;21070;-75
2021/10/07 04:15:01;;;;;;;43.90;13.73;;;;;;;1.51;100.00;101899.08;1716410;84;21527;-75
2021/10/07 04:17:29;;;;;;;27.83;9.10;;;;;;;1.54;100.00;101909.20;1674954;85;21018;-77
2021/10/07 04:19:56;;;;;;;27.93;8.87;;;;;;;1.54;100.00;101906.55;1737190;83;21515;-77
2021/10/07 04:22:23;;;;;;;22.80;7.90;;;;;;;1.56;100.00;101903.34;1736952;83;21032;-75
2021/10/07 04:24:49;;;;;;;12.93;5.10;;;;;;;1.55;100.00;101907.81;1736809;83;21017;-75
2021/10/07 04:27:17;;;;;;;10.20;4.80;;;;;;;1.55;100.00;101903.81;1736874;83;21009;-76
2021/10/07 04:29:44;;;;;;;18.90;7.43;;;;;;;1.57;100.00;101907.75;1736722;83;21464;-76
2021/10/07 04:32:12;;;;;;;17.33;6.70;;;;;;;1.59;100.00;101911.21;1736884;82;21113;-76
2021/10/07 04:34:39;;;;;;;13.70;4.93;;;;;;;1.58;100.00;101914.35;1736910;83;21129;-76
2021/10/07 04:37:06;;;;;;;16.53;5.63;;;;;;;1.58;100.00;101912.16;1736658;83;21053;-76
2021/10/07 04:39:35;;;;;;;14.83;5.37;;;;;;;1.58;100.00;101914.35;1740249;82;21017;-76
2021/10/07 04:42:03;;;;;;;12.43;4.43;;;;;;;1.60;100.00;101915.63;1709582;84;21068;-76
2021/10/07 04:44:30;;;;;;;12.77;4.20;;;;;;;1.62;100.00;101916.41;1709533;84;21061;-76
2021/10/07 04:46:57;;;;;;;8.83;4.03;;;;;;;1.62;100.00;101909.75;1737798;82;21073;-75
2021/10/07 04:49:24;;;;;;;21.60;7.00;;;;;;;1.65;100.00;101920.29;1755271;82;21519;-76
2021/10/07 04:51:51;;;;;;;37.00;13.93;;;;;;;1.66;100.00;101915.34;1755319;82;21057;-76
2021/10/07 04:54:18;;;;;;;21.27;6.97;;;;;;;1.68;100.00;101915.69;1755328;82;21559;-77
2021/10/07 04:56:45;;;;;;;27.30;8.40;;;;;;;1.71;100.00;101924.00;1755179;82;21010;-74
2021/10/07 04:59:12;;;;;;;26.67;6.77;;;;;;;1.74;100.00;101918.55;1755171;82;21050;-75
2021/10/07 05:01:39;;;;;;;26.57;6.87;;;;;;;1.77;100.00;101921.09;1755347;81;21061;-78
2021/10/07 05:04:06;;;;;;;33.77;7.40;;;;;;;1.82;100.00;101921.72;1761065;81;21026;-77
2021/10/07 05:06:34;;;;;;;61.97;11.43;;;;;;;1.88;100.00;101929.46;1760791;81;21049;-80
2021/10/07 05:09:01;;;;;;;75.40;15.20;;;;;;;1.96;100.00;101922.91;1759464;81;21030;-78
2021/10/07 05:11:29;;;;;;;76.20;14.33;;;;;;;2.05;100.00;101926.48;1747675;81;21136;-83
2021/10/07 05:13:58;;;;;;;37.30;9.40;;;;;;;2.15;100.00;101921.61;1736618;81;21058;-79
2021/10/07 05:16:25;;;;;;;37.20;16.63;;;;;;;2.24;100.00;101916.70;1742530;81;21120;-82
2021/10/07 05:18:52;;;;;;;34.27;9.97;;;;;;;2.34;100.00;101918.93;1733548;82;21046;-86
2021/10/07 05:21:22;;;;;;;78.47;27.53;;;;;;;2.39;100.00;101934.27;1738144;81;21044;-80
2021/10/07 05:23:49;;;;;;;46.53;13.50;;;;;;;2.42;100.00;101926.98;1744824;82;21524;-80
2021/10/07 05:26:18;;;;;;;36.27;10.97;;;;;;;2.43;100.00;101926.53;1729266;82;21024;-84
2021/10/07 05:28:45;;;;;;;83.27;18.00;;;;;;;2.44;100.00;101929.58;1736165;82;20988;-83
2021/10/07 05:31:13;;;;;;;52.13;12.20;;;;;;;2.43;100.00;101933.20;1736719;81;21512;-82
2021/10/07 05:33:40;;;;;;;102.73;23.73;;;;;;;2.46;100.00;101934.38;1726908;81;21078;-76
2021/10/07 05:36:08;;;;;;;45.23;17.33;;;;;;;2.52;100.00;101939.92;1724014;80;21054;-74
2021/10/07 05:38:35;;;;;;;76.17;15.40;;;;;;;2.59;100.00;101932.02;1733993;83;21004;-76
2021/10/07 05:41:04;;;;;;;39.77;10.07;;;;;;;2.69;100.00;101938.63;1734056;83;21022;-75
2021/10/07 05:43:32;;;;;;;76.57;32.53;;;;;;;2.79;100.00;101933.23;1737818;81;21066;-76
2021/10/07 05:45:59;;;;;;;52.03;14.90;;;;;;;2.87;100.00;101931.99;1733326;83;21332;-76
2021/10/07 05:48:27;;;;;;;40.83;10.70;;;;;;;2.92;100.00;101938.87;1736728;81;21519;-78
2021/10/07 05:50:55;;;;;;;72.60;18.63;;;;;;;2.96;100.00;101935.09;1734835;81;21026;-78
2021/10/07 05:53:22;;;;;;;83.80;23.87;;;;;;;3.02;100.00;101930.77;1736526;83;21559;-76
2021/10/07 05:55:49;;;;;;;41.27;17.50;;;;;;;3.10;100.00;101930.41;1736621;83;21073;-76
2021/10/07 05:58:17;;;;;;;35.57;13.93;;;;;;;3.18;100.00;101925.52;1736438;83;21041;-76
2021/10/07 06:00:44;;;;;;;23.57;8.60;;;;;;;3.23;100.00;101931.51;1735750;82;21084;-76
2021/10/07 06:03:13;;;;;;;26.07;8.20;;;;;;;3.27;100.00;101928.20;1724513;81;21564;-76
2021/10/07 06:05:50;;;;;;;50.57;22.97;;;;;;;3.33;100.00;101927.03;1705695;84;21044;-75
2021/10/07 06:08:18;;;;;;;31.63;11.87;;;;;;;3.41;100.00;101926.17;1702013;84;21061;-76
2021/10/07 06:13:57;;;;;;;24.95;10.38;;;;;;;3.42;100.00;101931.45;1581482;90;21078;-78
2021/10/07 06:16:26;;;;;;;48.23;11.00;;;;;;;3.48;100.00;101937.43;1554451;92;21279;-75
2021/10/07 06:18:53;;;;;;;41.33;16.73;;;;;;;3.54;100.00;101923.73;1559324;92;21101;-79
2021/10/07 06:21:20;;;;;;;29.50;10.10;;;;;;;3.62;100.00;101928.22;1559377;92;21101;-74
2021/10/07 06:23:47;;;;;;;66.53;34.70;;;;;;;3.74;100.00;101934.75;1559541;91;21070;-78
2021/10/07 06:26:14;;;;;;;136.57;47.57;;;;;;;3.85;100.00;101928.83;1559010;92;21146;-77
2021/10/07 06:28:42;;;;;;;43.00;16.97;;;;;;;3.91;100.00;101928.48;1558854;92;21058;-80
2021/10/07 06:33:43;;;;;;;33.17;13.37;;;;;;;3.98;100.00;101929.44;1505855;94;21077;-77
2021/10/07 06:36:10;;;;;;;48.73;21.33;;;;;;;4.07;100.00;101919.16;1506141;94;21033;-74
2021/10/07 06:38:37;;;;;;;24.60;10.10;;;;;;;4.23;100.00;101925.88;1488749;96;21034;-77
2021/10/07 06:41:04;;;;;;;37.40;17.03;;;;;;;4.43;100.00;101918.11;1488839;96;21047;-76
2021/10/07 06:43:31;;;;;;;53.63;26.00;;;;;;;4.55;100.00;101908.91;1488810;96;21182;-76
2021/10/07 06:45:58;;;;;;;51.97;22.80;;;;;;;4.67;100.00;101910.00;1467423;97;21110;-75
2021/10/07 06:48:25;;;;;;;32.50;12.00;;;;;;;4.82;100.00;101916.33;1502983;95;21082;-75
2021/10/07 06:50:53;;;;;;;25.67;10.57;;;;;;;4.99;100.00;101915.34;1488951;96;21582;-76
2021/10/07 06:53:20;;;;;;;47.73;12.23;;;;;;;5.25;100.00;101906.25;1490791;96;21662;-75
2021/10/07 06:55:47;;;;;;;21.67;8.47;;;;;;;5.55;100.00;101908.92;1491194;96;21099;-74
2021/10/07 06:58:16;;;;;;;33.87;9.23;;;;;;;5.79;100.00;101910.59;1489680;96;21138;-72
2021/10/07 07:00:42;;;;;;;23.23;8.40;;;;;;;5.97;100.00;101911.80;1463952;98;21668;-73
2021/10/07 07:03:09;;;;;;;84.33;16.77;;;;;;;6.06;100.00;101908.53;1482364;96;21631;-75
2021/10/07 07:05:37;;;;;;;32.57;9.83;;;;;;;6.11;100.00;101913.59;1472657;97;21106;-74
2021/10/07 07:08:04;;;;;;;82.27;15.27;;;;;;;6.17;100.00;101902.48;1455135;96;21170;-77
2021/10/07 07:10:32;;;;;;;85.20;16.47;;;;;;;6.22;100.00;101904.40;1424104;99;21135;-72
2021/10/07 07:13:04;;;;;;;75.30;12.87;;;;;;;6.34;100.00;101892.88;1444612;97;21433;-75
2021/10/07 07:15:33;;;;;;;55.60;11.13;;;;;;;6.52;100.00;101889.97;1502874;94;21706;-75
2021/10/07 07:18:00;;;;;;;50.43;10.43;;;;;;;6.71;100.00;101885.11;1606507;89;21111;-75
2021/10/07 07:20:27;;;;;;;61.67;10.33;;;;;;;6.85;96.42;101878.80;1661974;86;21015;-76
2021/10/07 07:22:54;;;;;;;46.27;10.90;;;;;;;6.99;79.48;101876.08;1666653;86;21006;-73
2021/10/07 07:25:21;;;;;;;46.10;8.47;;;;;;;7.13;71.39;101880.99;1644155;86;21562;-74
2021/10/07 07:27:48;;;;;;;32.33;7.67;;;;;;;7.26;65.42;101883.70;1637774;88;21551;-75
2021/10/07 07:30:15;;;;;;;40.43;8.67;;;;;;;7.41;64.69;101893.43;1639390;87;21054;-75
2021/10/07 07:32:42;;;;;;;39.80;8.83;;;;;;;7.68;64.12;101889.80;1639871;87;21531;-73
2021/10/07 07:35:10;;;;;;;70.63;14.50;;;;;;;8.08;63.10;101882.95;1639515;87;21073;-79
2021/10/07 07:37:37;;;;;;;38.23;7.00;;;;;;;8.51;59.93;101874.47;1727719;82;21077;-74
2021/10/07 07:40:06;;;;;;;24.50;5.80;;;;;;;8.80;55.43;101882.22;1736955;82;20965;-74
2021/10/07 07:42:33;;;;;;;58.80;9.60;;;;;;;8.91;52.93;101887.70;1751168;82;20967;-75
2021/10/07 07:45:00;;;;;;;34.23;6.67;;;;;;;9.06;51.39;101887.02;1751762;82;21102;-73
2021/10/07 07:47:27;;;;;;;20.67;5.13;;;;;;;9.20;49.86;101881.92;1752203;82;21571;-72
2021/10/07 07:49:54;;;;;;;33.63;7.03;;;;;;;9.30;48.14;101878.41;1751980;82;21069;-75
2021/10/07 07:52:23;;;;;;;27.67;5.73;;;;;;;9.39;47.47;101875.48;1756863;81;21045;-72
2021/10/07 07:54:50;;;;;;;21.25;6.30;;;;;;;9.49;46.63;101887.77;1768977;80;21033;-74
2021/10/07 07:57:17;;;;;;;30.00;7.00;;;;;;;9.63;47.23;101869.14;1768801;81;20986;-71
2021/10/07 07:59:45;;;;;;;29.67;5.90;;;;;;;9.81;46.08;101886.63;1768897;81;21018;-72
2021/10/07 08:02:15;;;;;;;30.32;6.05;;;;;;;9.87;45.28;101869.91;1775228;80;20990;-72
2021/10/07 08:04:42;;;;;;;28.87;5.85;;;;;;;9.96;44.58;101879.13;1706226;80;21116;-73
2021/10/07 08:07:09;;;;;;;47.00;7.70;;;;;;;10.07;43.88;101870.16;1703646;84;21074;-74
2021/10/07 08:09:38;;;;;;;40.28;7.80;;;;;;;10.18;44.29;101866.59;1733695;82;21514;-75
2021/10/07 08:12:06;;;;;;;36.77;6.65;;;;;;;10.43;44.89;101868.22;1734719;83;21503;-74
2021/10/07 08:14:34;;;;;;;20.65;4.92;;;;;;;10.76;44.35;101867.25;1734222;83;21024;-75
2021/10/07 08:17:01;;;;;;;20.75;5.37;;;;;;;11.00;42.57;101858.94;1734718;83;21048;-73
2021/10/07 08:19:28;;;;;;;24.45;6.22;;;;;;;11.14;41.31;101857.77;1734685;83;20973;-71
2021/10/07 08:21:55;;;;;;;35.13;6.75;;;;;;;11.18;40.15;101861.93;1707481;83;20998;-73
2021/10/07 08:24:23;;;;;;;89.35;14.65;;;;;;;11.22;39.64;101854.41;1704013;84;21014;-73
2021/10/07 08:26:50;;;;;;;53.65;9.43;;;;;;;11.29;38.98;101849.33;1703992;84;21030;-72
2021/10/07 08:29:17;;;;;;;39.27;7.53;;;;;;;11.41;39.58;101852.34;1704008;83;21038;-74
2021/10/07 08:31:45;;;;;;;32.85;6.25;;;;;;;11.62;39.37;101841.49;1703788;83;21069;-73
2021/10/07 08:34:12;;;;;;;24.90;5.37;;;;;;;11.81;38.99;101842.09;1723360;82;20998;-71
2021/10/07 08:36:43;;;;;;;28.55;6.28;;;;;;;11.93;37.57;101846.95;1745892;81;21525;-75
2021/10/07 08:39:10;;;;;;;71.02;11.18;;;;;;;11.95;37.35;101840.89;1733029;81;21079;-75
2021/10/07 08:41:39;;;;;;;25.15;6.20;;;;;;;12.01;37.33;101843.58;1683026;85;21041;-75
2021/10/07 08:44:06;;;;;;;42.67;8.30;;;;;;;12.17;37.39;101843.06;1659545;86;21085;-73
2021/10/07 08:46:33;;;;;;;56.65;9.93;;;;;;;12.27;37.18;101843.45;1688363;85;21020;-74
2021/10/07 08:49:01;;;;;;;28.92;5.78;;;;;;;12.34;36.83;101845.09;1687212;85;21049;-75
2021/10/07 08:51:29;;;;;;;36.65;7.45;;;;;;;12.38;36.44;101835.70;1687591;85;21030;-73
2021/10/07 08:53:56;;;;;;;22.87;5.35;;;;;;;12.50;36.93;101843.20;1690488;85;21077;-73
2021/10/07 08:56:25;;;;;;;38.65;7.55;;;;;;;12.63;36.19;101834.31;1690530;85;21022;-72
2021/10/07 08:58:52;;;;;;;14.87;4.50;;;;;;;12.75;35.68;101831.45;1690036;85;21062;-77
2021/10/07 09:01:44;;;;;;;73.22;10.88;;;;;;;12.89;36.18;101837.34;1690369;85;21093;-72
2021/10/07 09:04:37;;;;;;;24.45;5.50;;;;;;;13.06;35.68;101837.11;1717604;82;21054;-71
2021/10/07 09:07:10;;;;;;;22.15;4.28;;;;;;;13.17;34.73;101831.17;1734435;83;21047;-78
2021/10/07 09:09:40;;;;;;;16.87;4.28;;;;;;;13.14;33.98;101834.17;1734774;83;21022;-74
2021/10/07 09:12:11;;;;;;;20.00;5.20;;;;;;;13.09;33.83;101825.11;1708832;84;21090;-74
2021/10/07 09:14:42;;;;;;;23.75;5.03;;;;;;;13.07;34.21;101827.13;1660219;86;20964;-78
2021/10/07 09:17:10;;;;;;;36.70;6.10;;;;;;;13.14;33.99;101830.09;1601552;88;21064;-74
2021/10/07 09:19:40;;;;;;;36.95;8.15;;;;;;;13.09;33.91;101822.41;1594024;90;21060;-74
2021/10/07 09:22:18;;;;;;;23.18;4.53;;;;;;;13.16;34.47;101824.05;1593924;90;21684;-72
2021/10/07 09:24:49;;;;;;;61.02;10.23;;;;;;;13.36;34.56;101818.11;1593765;90;21613;-72
2021/10/07 09:27:30;;;;;;;29.87;6.45;;;;;;;13.58;34.51;101816.89;1593926;90;21072;-71
2021/10/07 09:30:11;;;;;;;25.37;5.22;;;;;;;13.72;33.30;101809.63;1570454;91;21054;-73
2021/10/07 09:32:45;;;;;;;58.48;11.35;;;;;;;13.74;33.49;101820.34;1570469;91;21556;-74
2021/10/07 09:35:16;;;;;;;40.83;7.62;;;;;;;13.86;33.41;101806.92;1570605;90;21640;-76
2021/10/07 09:37:45;;;;;;;37.17;7.25;;;;;;;13.83;32.74;101805.38;1563540;91;21089;-73
2021/10/07 09:40:23;;;;;;;30.70;6.97;;;;;;;13.75;32.83;101808.48;1559660;91;21508;-76
2021/10/07 09:42:54;;;;;;;58.83;10.93;;;;;;;13.62;32.56;101799.31;1580388;89;21041;-76
2021/10/07 09:45:25;;;;;;;48.28;10.88;;;;;;;13.59;33.17;101805.03;1575767;91;21094;-75
2021/10/07 09:47:56;;;;;;;33.90;8.58;;;;;;;13.64;33.16;101802.73;1526032;94;21067;-74
2021/10/07 09:50:29;;;;;;;30.82;5.67;;;;;;;13.64;32.70;101807.66;1527046;94;21142;-73
2021/10/07 09:53:11;;;;;;;27.15;6.42;;;;;;;13.64;33.03;101812.24;1504800;94;21133;-77
2021/10/07 09:55:43;;;;;;;21.48;7.33;;;;;;;13.65;32.92;101805.78;1500196;95;21607;-76
2021/10/07 09:58:16;;;;;;;22.00;5.83;;;;;;;13.66;33.49;101798.00;1500142;95;21165;-76
2021/10/07 10:00:50;;;;;;;26.40;8.88;;;;;;;13.80;33.59;101792.07;1503228;95;21059;-78
2021/10/07 10:03:18;;;;;;;73.00;11.53;;;;;;;13.96;33.58;101805.54;1499120;95;21121;-82
2021/10/07 10:05:46;;;;;;;37.20;13.78;;;;;;;13.86;31.96;101796.93;1516705;94;21096;-77
2021/10/07 10:08:15;;;;;;;43.38;18.20;;;;;;;13.69;31.93;101804.50;1522540;93;21123;-76
2021/10/07 10:10:44;;;;;;;49.23;26.87;;;;;;;13.66;32.47;101791.20;1545988;93;21109;-78
2021/10/07 10:13:13;;;;;;;27.27;9.70;;;;;;;13.66;32.47;101791.20;1553762;90;21591;-75
2021/10/07 10:15:41;;;;;;;43.75;7.78;;;;;;;13.75;32.77;101760.91;1593697;89;21177;-79
2021/10/07 10:18:13;;;;;;;44.42;7.03;;;;;;;13.76;32.40;101783.03;1593379;90;21126;-74
2021/10/07 10:20:48;;;;;;;38.08;6.65;;;;;;;13.83;32.27;101770.03;1593352;90;21550;-72
2021/10/07 10:23:21;;;;;;;30.85;5.87;;;;;;;13.89;32.11;101783.52;1592960;90;21133;-74
2021/10/07 10:26:12;;;;;;;36.65;5.72;;;;;;;13.92;32.18;101774.23;1600270;88;21073;-73
2021/10/07 10:28:50;;;;;;;22.77;5.15;;;;;;;13.84;31.06;101766.80;1636518;88;21608;-75
2021/10/07 10:31:32;;;;;;;41.05;8.10;;;;;;;13.84;31.06;101766.80;1636729;88;21566;-75
2021/10/07 10:34:07;;;;;;;;;;;;;;;13.75;30.69;101768.55;1639050;88;21220;-75
2021/10/07 10:36:58;;;;;;;50.08;7.15;;;;;;;13.70;30.48;101771.38;1636716;88;20148;-74
2021/10/07 10:39:35;;;;;;;74.07;11.08;;;;;;;13.69;30.79;101756.94;1626071;88;21519;-74
2021/10/07 10:42:19;;;;;;;43.83;8.50;;;;;;;13.75;30.95;101756.83;1617478;89;21080;-72
2021/10/07 10:44:49;;;;;;;51.65;9.55;;;;;;;13.76;30.76;101741.73;1619252;88;21073;-73
2021/10/07 10:47:23;;;;;;;60.60;10.70;;;;;;;13.80;31.11;101748.58;1650992;87;21241;-73
2021/10/07 10:49:59;;;;;;;38.02;7.70;;;;;;;13.90;31.66;101747.17;1643771;87;21070;-74
2021/10/07 10:52:41;;;;;;;80.80;13.90;;;;;;;14.00;31.70;101751.19;1613113;89;21096;-75
2021/10/07 10:55:18;;;;;;;75.65;12.60;;;;;;;14.19;31.16;101748.86;1615954;89;21112;-77
2021/10/07 10:57:50;;;;;;;68.80;13.03;;;;;;;14.30;30.96;101739.63;1618047;89;21720;-77
2021/10/07 11:00:28;;;;;;;74.03;12.65;;;;;;;14.28;30.64;101749.81;1619945;86;21055;-76
2021/10/07 11:06:09;;;;;;;85.15;15.95;;;;;;;14.21;30.36;101740.88;1582199;91;21118;-76
2021/10/07 11:08:47;;;;;;;76.07;13.45;;;;;;;14.21;30.36;101740.88;1537172;92;21120;-77
2021/10/07 11:13:56;;;;;;;61.13;10.82;;;;;;;14.54;32.07;101727.63;1488429;95;21045;-76
2021/10/07 11:16:25;;;;;;;52.78;12.50;;;;;;;14.60;30.55;101722.09;1484960;96;21114;-76
2021/10/07 11:18:52;;;;;;;30.25;6.50;;;;;;;14.46;30.16;101715.28;1486242;96;21082;-77
2021/10/07 11:21:22;;;;;;;54.90;9.35;;;;;;;14.46;30.16;101715.28;1485842;96;21155;-75
2021/10/07 11:23:54;;;;;;;72.90;12.13;;;;;;;14.37;30.41;101715.71;1486259;96;21111;-74
2021/10/07 11:26:32;;;;;;;;;;;;;;;14.40;31.00;101715.41;1488794;96;21233;-74
2021/10/07 11:28:55;;;;;;;42.03;7.33;;;;;;;14.57;31.30;101706.02;1486401;95;20230;-74
2021/10/07 11:31:25;;;;;;;54.27;11.57;;;;;;;14.66;30.57;101708.34;1490740;95;21110;-83
2021/10/07 11:33:58;;;;;;;47.90;7.28;;;;;;;14.68;30.56;101728.09;1466677;96;21099;-82
2021/10/07 11:36:27;;;;;;;100.97;13.83;;;;;;;14.65;30.25;101726.55;1494320;95;21121;-75
2021/10/07 11:38:54;;;;;;;51.68;8.90;;;;;;;14.54;29.74;101719.97;1485276;96;21747;-74
2021/10/07 11:41:34;;;;;;;35.23;8.28;;;;;;;14.46;29.80;101720.73;1488825;96;21102;-81
2021/10/07 11:44:03;;;;;;;62.30;11.38;;;;;;;14.47;29.53;101723.81;1496196;95;21625;-76